sensor_id;sensor_type;location;lat;lon;timestamp;pressure;altitude;pressure_sealevel;temperature;humidity
43217;BME280;60511;42.686;23.300;2023-03-20T00:00:55;94975.88;;;22.54;27.59
43217;BME280;60511;42.686;23.300;2023-03-20T00:02:56;95023.59;;;22.90;27.29
43217;BME280;60511;42.686;23.300;2023-03-20T00:04:56;95033.16;;;22.87;27.64
43217;BME280;60511;42.686;23.300;2023-03-20T00:06:56;95003.63;;;22.66;27.50
43217;BME280;60511;42.686;23.300;2023-03-20T00:08:57;94826.56;;;21.60;27.46
43217;BME280;60511;42.686;23.300;2023-03-20T00:10:57;94928.97;;;22.21;27.22
43217;BME280;60511;42.686;23.300;2023-03-20T00:12:58;94897.63;;;22.04;27.16
43217;BME280;60511;42.686;23.300;2023-03-20T00:15:02;94865.41;;;21.83;27.23
43217;BME280;60511;42.686;23.300;2023-03-20T00:17:09;94964.97;;;22.38;27.42
43217;BME280;60511;42.686;23.300;2023-03-20T00:19:19;95014.53;;;22.82;27.48
43217;BME280;60511;42.686;23.300;2023-03-20T00:21:22;95033.41;;;22.82;27.35
43217;BME280;60511;42.686;23.300;2023-03-20T00:23:22;95019.09;;;22.82;27.38
43217;BME280;60511;42.686;23.300;2023-03-20T00:25:24;94927.50;;;22.12;27.30
43217;BME280;60511;42.686;23.300;2023-03-20T00:27:26;94949.00;;;22.33;27.43
43217;BME280;60511;42.686;23.300;2023-03-20T00:29:28;95007.88;;;22.80;27.46
43217;BME280;60511;42.686;23.300;2023-03-20T00:31:35;95033.28;;;22.79;27.22
43217;BME280;60511;42.686;23.300;2023-03-20T00:33:36;94978.56;;;22.54;27.18
43217;BME280;60511;42.686;23.300;2023-03-20T00:35:37;94925.38;;;22.17;27.31
43217;BME280;60511;42.686;23.300;2023-03-20T00:37:37;94920.78;;;22.18;27.20
43217;BME280;60511;42.686;23.300;2023-03-20T00:39:38;95011.25;;;22.77;27.35
43217;BME280;60511;42.686;23.300;2023-03-20T00:41:44;95010.47;;;22.76;27.42
43217;BME280;60511;42.686;23.300;2023-03-20T00:43:50;94988.91;;;22.52;27.52
43217;BME280;60511;42.686;23.300;2023-03-20T00:45:52;94977.66;;;22.50;27.26
43217;BME280;60511;42.686;23.300;2023-03-20T00:47:52;94947.09;;;22.33;27.34
43217;BME280;60511;42.686;23.300;2023-03-20T00:49:53;94976.09;;;22.49;27.36
43217;BME280;60511;42.686;23.300;2023-03-20T00:51:54;95004.19;;;22.72;27.46
43217;BME280;60511;42.686;23.300;2023-03-20T00:53:55;94916.50;;;22.17;27.27
43217;BME280;60511;42.686;23.300;2023-03-20T00:55:55;94969.91;;;22.36;27.29
43217;BME280;60511;42.686;23.300;2023-03-20T00:57:58;94996.75;;;22.69;27.62
43217;BME280;60511;42.686;23.300;2023-03-20T01:00:00;94993.59;;;22.67;27.47
43217;BME280;60511;42.686;23.300;2023-03-20T01:02:04;95001.69;;;22.67;27.20
43217;BME280;60511;42.686;23.300;2023-03-20T01:04:10;95002.47;;;22.67;27.42
43217;BME280;60511;42.686;23.300;2023-03-20T01:06:11;94948.09;;;22.41;27.24
43217;BME280;60511;42.686;23.300;2023-03-20T01:08:15;94998.56;;;22.65;27.49
43217;BME280;60511;42.686;23.300;2023-03-20T01:10:16;94881.13;;;21.94;27.71
43217;BME280;60511;42.686;23.300;2023-03-20T01:12:17;94973.84;;;22.51;27.56
43217;BME280;60511;42.686;23.300;2023-03-20T01:14:17;94907.41;;;22.09;27.36
43217;BME280;60511;42.686;23.300;2023-03-20T01:16:21;94917.38;;;22.21;27.53
43217;BME280;60511;42.686;23.300;2023-03-20T01:18:23;94990.47;;;22.65;27.57
43217;BME280;60511;42.686;23.300;2023-03-20T01:20:28;94979.22;;;22.63;27.41
43217;BME280;60511;42.686;23.300;2023-03-20T01:22:29;94957.53;;;22.47;28.64
43217;BME280;60511;42.686;23.300;2023-03-20T01:24:29;94960.22;;;22.47;27.28
43217;BME280;60511;42.686;23.300;2023-03-20T01:26:33;94888.09;;;22.07;27.33
43217;BME280;60511;42.686;23.300;2023-03-20T01:28:35;94895.81;;;22.08;27.56
43217;BME280;60511;42.686;23.300;2023-03-20T01:30:36;94978.31;;;22.59;27.42
43217;BME280;60511;42.686;23.300;2023-03-20T01:32:36;94896.19;;;22.07;27.24
43217;BME280;60511;42.686;23.300;2023-03-20T01:34:37;94979.91;;;22.60;28.43
43217;BME280;60511;42.686;23.300;2023-03-20T01:36:37;94945.06;;;22.30;27.33
43217;BME280;60511;42.686;23.300;2023-03-20T01:38:39;94947.56;;;22.35;27.44
43217;BME280;60511;42.686;23.300;2023-03-20T01:42:48;94997.22;;;22.59;27.57
43217;BME280;60511;42.686;23.300;2023-03-20T01:44:48;94910.56;;;22.11;27.57
43217;BME280;60511;42.686;23.300;2023-03-20T01:46:51;94969.34;;;22.42;27.66
43217;BME280;60511;42.686;23.300;2023-03-20T01:50:54;94944.03;;;22.22;27.60
43217;BME280;60511;42.686;23.300;2023-03-20T01:53:19;94986.28;;;22.55;27.58
43217;BME280;60511;42.686;23.300;2023-03-20T01:55:21;94801.69;;;21.30;27.59
43217;BME280;60511;42.686;23.300;2023-03-20T01:57:23;94917.16;;;22.01;27.68
43217;BME280;60511;42.686;23.300;2023-03-20T01:59:31;94978.22;;;22.43;27.77
43217;BME280;60511;42.686;23.300;2023-03-20T02:01:35;94976.97;;;22.40;27.97
43217;BME280;60511;42.686;23.300;2023-03-20T02:03:37;94973.94;;;22.42;27.85
43217;BME280;60511;42.686;23.300;2023-03-20T02:05:37;94986.66;;;22.54;28.17
43217;BME280;60511;42.686;23.300;2023-03-20T02:07:38;94941.47;;;22.26;27.61
43217;BME280;60511;42.686;23.300;2023-03-20T02:09:38;94950.91;;;22.32;27.62
43217;BME280;60511;42.686;23.300;2023-03-20T02:11:40;94989.69;;;22.52;27.80
43217;BME280;60511;42.686;23.300;2023-03-20T02:13:41;94989.69;;;22.52;27.51
43217;BME280;60511;42.686;23.300;2023-03-20T02:16:05;94987.00;;;22.52;28.31
43217;BME280;60511;42.686;23.300;2023-03-20T02:18:09;94979.66;;;22.53;27.75
43217;BME280;60511;42.686;23.300;2023-03-20T02:20:44;94978.91;;;22.52;27.89
43217;BME280;60511;42.686;23.300;2023-03-20T02:44:30;94948.88;;;22.29;27.53
43217;BME280;60511;42.686;23.300;2023-03-20T02:51:03;94928.41;;;22.16;27.69
43217;BME280;60511;42.686;23.300;2023-03-20T02:55:37;94968.00;;;22.49;27.82
43217;BME280;60511;42.686;23.300;2023-03-20T02:57:46;94969.47;;;22.46;27.78
43217;BME280;60511;42.686;23.300;2023-03-20T02:59:59;94971.81;;;22.48;27.81
43217;BME280;60511;42.686;23.300;2023-03-20T03:02:35;94973.38;;;22.49;27.94
43217;BME280;60511;42.686;23.300;2023-03-20T03:04:40;94953.59;;;22.32;27.75
43217;BME280;60511;42.686;23.300;2023-03-20T03:06:46;94931.09;;;22.16;28.11
43217;BME280;60511;42.686;23.300;2023-03-20T03:08:54;94939.84;;;22.13;27.93
43217;BME280;60511;42.686;23.300;2023-03-20T03:11:07;94975.19;;;22.44;27.70
43217;BME280;60511;42.686;23.300;2023-03-20T03:13:12;94893.56;;;21.98;27.94
43217;BME280;60511;42.686;23.300;2023-03-20T03:15:38;94964.50;;;22.48;27.92
43217;BME280;60511;42.686;23.300;2023-03-20T03:17:41;94929.47;;;22.23;27.90
43217;BME280;60511;42.686;23.300;2023-03-20T03:19:46;94957.09;;;22.33;27.60
43217;BME280;60511;42.686;23.300;2023-03-20T03:21:48;94981.34;;;22.45;27.72
43217;BME280;60511;42.686;23.300;2023-03-20T03:23:51;94924.50;;;22.13;28.00
43217;BME280;60511;42.686;23.300;2023-03-20T03:25:52;94976.78;;;22.45;27.92
43217;BME280;60511;42.686;23.300;2023-03-20T03:30:24;94994.50;;;22.46;28.09
43217;BME280;60511;42.686;23.300;2023-03-20T03:32:35;94889.75;;;21.87;28.12
43217;BME280;60511;42.686;23.300;2023-03-20T03:34:40;94921.22;;;22.07;27.98
43217;BME280;60511;42.686;23.300;2023-03-20T03:43:33;94924.25;;;22.18;28.06
43217;BME280;60511;42.686;23.300;2023-03-20T03:45:38;94876.28;;;21.87;27.73
43217;BME280;60511;42.686;23.300;2023-03-20T03:47:50;94939.31;;;22.19;27.53
43217;BME280;60511;42.686;23.300;2023-03-20T03:50:03;94964.38;;;22.44;27.83
43217;BME280;60511;42.686;23.300;2023-03-20T03:52:09;94969.78;;;22.44;27.83
43217;BME280;60511;42.686;23.300;2023-03-20T03:54:24;94902.78;;;21.97;28.01
43217;BME280;60511;42.686;23.300;2023-03-20T03:56:28;94972.38;;;22.41;27.79
43217;BME280;60511;42.686;23.300;2023-03-20T03:58:36;94935.28;;;22.13;27.77
43217;BME280;60511;42.686;23.300;2023-03-20T04:00:40;94942.03;;;22.32;28.26
43217;BME280;60511;42.686;23.300;2023-03-20T04:02:43;94951.34;;;22.34;27.68
43217;BME280;60511;42.686;23.300;2023-03-20T04:04:46;94961.25;;;22.42;27.85
43217;BME280;60511;42.686;23.300;2023-03-20T04:06:48;94917.84;;;22.11;27.68
43217;BME280;60511;42.686;23.300;2023-03-20T04:08:48;94973.16;;;22.41;27.74
43217;BME280;60511;42.686;23.300;2023-03-20T04:10:49;94968.09;;;22.40;27.73
43217;BME280;60511;42.686;23.300;2023-03-20T04:12:50;94870.00;;;21.83;27.83
43217;BME280;60511;42.686;23.300;2023-03-20T04:14:50;94954.28;;;22.41;28.04
43217;BME280;60511;42.686;23.300;2023-03-20T04:16:51;94903.56;;;22.10;27.70
43217;BME280;60511;42.686;23.300;2023-03-20T04:18:51;94954.84;;;22.35;28.63
43217;BME280;60511;42.686;23.300;2023-03-20T04:20:52;94956.09;;;22.37;28.79
43217;BME280;60511;42.686;23.300;2023-03-20T04:22:52;94922.28;;;22.27;27.93
43217;BME280;60511;42.686;23.300;2023-03-20T04:24:52;94946.88;;;22.38;27.88
43217;BME280;60511;42.686;23.300;2023-03-20T04:26:53;94940.69;;;22.25;27.70
43217;BME280;60511;42.686;23.300;2023-03-20T04:28:53;94872.25;;;21.81;28.13
43217;BME280;60511;42.686;23.300;2023-03-20T04:30:55;94958.09;;;22.40;28.07
43217;BME280;60511;42.686;23.300;2023-03-20T04:32:56;94948.53;;;22.43;27.92
43217;BME280;60511;42.686;23.300;2023-03-20T04:34:57;94896.06;;;22.03;28.56
43217;BME280;60511;42.686;23.300;2023-03-20T04:36:57;94960.03;;;22.40;28.06
43217;BME280;60511;42.686;23.300;2023-03-20T04:39:00;94963.03;;;22.38;28.36
43217;BME280;60511;42.686;23.300;2023-03-20T04:41:00;94945.28;;;22.25;28.16
43217;BME280;60511;42.686;23.300;2023-03-20T04:43:00;94927.28;;;22.17;27.87
43217;BME280;60511;42.686;23.300;2023-03-20T04:45:01;94913.78;;;22.04;28.17
43217;BME280;60511;42.686;23.300;2023-03-20T04:47:01;94990.00;;;22.38;28.09
43217;BME280;60511;42.686;23.300;2023-03-20T04:49:02;94965.41;;;22.27;28.10
43217;BME280;60511;42.686;23.300;2023-03-20T04:51:02;94960.47;;;22.30;28.04
43217;BME280;60511;42.686;23.300;2023-03-20T04:53:02;94898.88;;;21.82;28.29
43217;BME280;60511;42.686;23.300;2023-03-20T04:55:03;94953.69;;;22.11;27.97
43217;BME280;60511;42.686;23.300;2023-03-20T04:57:04;94928.16;;;21.96;28.25
43217;BME280;60511;42.686;23.300;2023-03-20T04:59:05;94996.63;;;22.41;27.85
43217;BME280;60511;42.686;23.300;2023-03-20T05:01:05;94988.53;;;22.29;28.02
43217;BME280;60511;42.686;23.300;2023-03-20T05:03:06;94940.22;;;22.11;27.94
43217;BME280;60511;42.686;23.300;2023-03-20T05:05:06;94963.47;;;22.16;28.31
43217;BME280;60511;42.686;23.300;2023-03-20T05:07:07;94878.41;;;21.69;28.52
43217;BME280;60511;42.686;23.300;2023-03-20T05:09:07;94939.75;;;22.09;28.04
43217;BME280;60511;42.686;23.300;2023-03-20T05:11:07;94980.13;;;22.30;28.11
43217;BME280;60511;42.686;23.300;2023-03-20T05:13:08;95004.28;;;22.39;28.23
43217;BME280;60511;42.686;23.300;2023-03-20T05:15:09;94931.88;;;22.04;27.96
43217;BME280;60511;42.686;23.300;2023-03-20T05:17:09;94924.78;;;21.87;27.96
43217;BME280;60511;42.686;23.300;2023-03-20T05:19:10;94956.47;;;22.15;28.27
43217;BME280;60511;42.686;23.300;2023-03-20T05:21:10;95011.25;;;22.40;28.11
43217;BME280;60511;42.686;23.300;2023-03-20T05:23:11;94984.75;;;22.30;28.15
43217;BME280;60511;42.686;23.300;2023-03-20T05:25:11;94969.63;;;22.16;28.08
43217;BME280;60511;42.686;23.300;2023-03-20T05:27:11;95006.97;;;22.39;28.13
43217;BME280;60511;42.686;23.300;2023-03-20T05:29:12;94904.78;;;21.76;28.12
43217;BME280;60511;42.686;23.300;2023-03-20T05:31:12;95009.78;;;22.42;28.59
43217;BME280;60511;42.686;23.300;2023-03-20T05:33:13;95005.19;;;22.43;27.90
43217;BME280;60511;42.686;23.300;2023-03-20T05:35:13;94907.59;;;21.79;28.21
43217;BME280;60511;42.686;23.300;2023-03-20T05:37:13;94965.91;;;22.08;28.16
43217;BME280;60511;42.686;23.300;2023-03-20T05:39:15;94988.22;;;22.30;28.18
43217;BME280;60511;42.686;23.300;2023-03-20T05:41:15;94999.34;;;22.41;28.07
43217;BME280;60511;42.686;23.300;2023-03-20T05:43:16;95012.50;;;22.42;28.05
43217;BME280;60511;42.686;23.300;2023-03-20T05:45:16;94927.16;;;21.89;27.86
43217;BME280;60511;42.686;23.300;2023-03-20T05:47:17;95006.66;;;22.40;27.85
43217;BME280;60511;42.686;23.300;2023-03-20T05:49:17;95020.59;;;22.42;27.84
43217;BME280;60511;42.686;23.300;2023-03-20T05:51:18;94936.25;;;21.96;27.81
43217;BME280;60511;42.686;23.300;2023-03-20T05:53:18;95012.28;;;22.48;27.96
43217;BME280;60511;42.686;23.300;2023-03-20T05:55:18;95017.69;;;22.48;27.44
43217;BME280;60511;42.686;23.300;2023-03-20T05:57:19;95009.91;;;22.46;27.61
43217;BME280;60511;42.686;23.300;2023-03-20T05:59:19;95021.47;;;22.46;27.76
43217;BME280;60511;42.686;23.300;2023-03-20T06:01:20;94972.13;;;22.21;27.66
43217;BME280;60511;42.686;23.300;2023-03-20T06:03:21;95004.84;;;22.44;28.05
43217;BME280;60511;42.686;23.300;2023-03-20T06:05:21;94941.44;;;22.01;27.84
43217;BME280;60511;42.686;23.300;2023-03-20T06:07:21;94971.75;;;22.23;28.33
43217;BME280;60511;42.686;23.300;2023-03-20T06:09:22;94842.28;;;21.37;27.89
43217;BME280;60511;42.686;23.300;2023-03-20T06:11:22;95005.63;;;22.45;28.42
43217;BME280;60511;42.686;23.300;2023-03-20T06:13:23;94996.44;;;22.46;28.13
43217;BME280;60511;42.686;23.300;2023-03-20T06:15:23;94923.13;;;21.95;28.14
43217;BME280;60511;42.686;23.300;2023-03-20T06:17:24;95015.31;;;22.46;27.97
43217;BME280;60511;42.686;23.300;2023-03-20T06:19:25;95007.66;;;22.48;27.76
43217;BME280;60511;42.686;23.300;2023-03-20T06:21:25;94957.81;;;22.08;28.12
43217;BME280;60511;42.686;23.300;2023-03-20T06:23:25;94933.22;;;21.98;28.07
43217;BME280;60511;42.686;23.300;2023-03-20T06:25:26;95015.44;;;22.50;27.97
43217;BME280;60511;42.686;23.300;2023-03-20T06:27:26;95011.59;;;22.51;27.83
43217;BME280;60511;42.686;23.300;2023-03-20T06:29:26;95011.25;;;22.52;28.04
43217;BME280;60511;42.686;23.300;2023-03-20T06:31:28;95017.31;;;22.49;28.78
43217;BME280;60511;42.686;23.300;2023-03-20T06:33:28;94961.31;;;22.09;28.04
43217;BME280;60511;42.686;23.300;2023-03-20T06:35:28;95000.16;;;22.41;28.43
43217;BME280;60511;42.686;23.300;2023-03-20T06:37:31;94969.06;;;22.23;28.38
43217;BME280;60511;42.686;23.300;2023-03-20T06:39:31;94930.19;;;21.99;28.34
43217;BME280;60511;42.686;23.300;2023-03-20T06:41:32;95006.19;;;22.51;28.53
43217;BME280;60511;42.686;23.300;2023-03-20T06:43:32;95026.22;;;22.62;28.30
43217;BME280;60511;42.686;23.300;2023-03-20T06:45:32;94992.84;;;22.42;28.62
43217;BME280;60511;42.686;23.300;2023-03-20T06:47:33;95020.81;;;22.62;28.50
43217;BME280;60511;42.686;23.300;2023-03-20T06:49:33;94962.16;;;22.34;28.25
43217;BME280;60511;42.686;23.300;2023-03-20T06:51:33;95014.75;;;22.65;28.33
43217;BME280;60511;42.686;23.300;2023-03-20T06:53:34;94981.72;;;22.43;28.13
43217;BME280;60511;42.686;23.300;2023-03-20T06:55:35;94977.22;;;22.48;28.22
43217;BME280;60511;42.686;23.300;2023-03-20T06:57:37;95015.31;;;22.71;28.23
43217;BME280;60511;42.686;23.300;2023-03-20T06:59:37;94931.31;;;22.23;28.21
43217;BME280;60511;42.686;23.300;2023-03-20T07:01:37;94986.53;;;22.62;27.97
43217;BME280;60511;42.686;23.300;2023-03-20T07:03:38;94989.22;;;22.62;28.31
43217;BME280;60511;42.686;23.300;2023-03-20T07:05:40;95008.09;;;22.75;28.32
43217;BME280;60511;42.686;23.300;2023-03-20T07:07:40;95006.63;;;22.77;27.97
43217;BME280;60511;42.686;23.300;2023-03-20T07:09:41;94991.59;;;22.76;28.40
43217;BME280;60511;42.686;23.300;2023-03-20T07:11:42;94873.72;;;22.03;28.34
43217;BME280;60511;42.686;23.300;2023-03-20T07:13:43;94979.66;;;22.65;28.08
43217;BME280;60511;42.686;23.300;2023-03-20T07:15:43;94952.47;;;22.58;28.20
43217;BME280;60511;42.686;23.300;2023-03-20T07:17:44;94976.50;;;22.75;28.10
43217;BME280;60511;42.686;23.300;2023-03-20T07:19:45;94943.69;;;22.61;28.28
43217;BME280;60511;42.686;23.300;2023-03-20T07:21:45;94998.78;;;22.84;28.47
43217;BME280;60511;42.686;23.300;2023-03-20T07:23:46;94984.13;;;22.85;28.19
43217;BME280;60511;42.686;23.300;2023-03-20T07:25:46;94983.03;;;22.86;28.10
43217;BME280;60511;42.686;23.300;2023-03-20T07:27:48;94919.91;;;22.38;28.15
43217;BME280;60511;42.686;23.300;2023-03-20T07:29:49;94921.34;;;22.48;28.28
43217;BME280;60511;42.686;23.300;2023-03-20T07:31:50;94894.16;;;22.16;28.23
43217;BME280;60511;42.686;23.300;2023-03-20T07:33:51;94928.75;;;22.39;28.46
43217;BME280;60511;42.686;23.300;2023-03-20T07:35:53;94920.59;;;22.35;28.21
43217;BME280;60511;42.686;23.300;2023-03-20T07:37:53;94991.22;;;22.90;28.43
43217;BME280;60511;42.686;23.300;2023-03-20T07:39:54;94975.41;;;22.76;28.05
43217;BME280;60511;42.686;23.300;2023-03-20T07:41:54;95003.16;;;22.89;28.37
43217;BME280;60511;42.686;23.300;2023-03-20T07:43:54;95005.16;;;22.92;28.20
43217;BME280;60511;42.686;23.300;2023-03-20T07:45:55;95007.50;;;22.94;28.17
43217;BME280;60511;42.686;23.300;2023-03-20T07:47:55;94966.75;;;22.71;28.34
43217;BME280;60511;42.686;23.300;2023-03-20T07:49:56;94999.75;;;22.92;28.02
43217;BME280;60511;42.686;23.300;2023-03-20T07:51:56;94921.81;;;22.50;28.36
43217;BME280;60511;42.686;23.300;2023-03-20T07:53:56;94873.94;;;22.10;28.30
43217;BME280;60511;42.686;23.300;2023-03-20T07:55:57;94983.25;;;22.81;28.39
43217;BME280;60511;42.686;23.300;2023-03-20T07:57:57;94857.44;;;21.99;28.48
43217;BME280;60511;42.686;23.300;2023-03-20T07:59:58;94999.53;;;22.97;28.40
43217;BME280;60511;42.686;23.300;2023-03-20T08:01:58;94901.13;;;22.42;28.29
43217;BME280;60511;42.686;23.300;2023-03-20T08:03:58;94892.59;;;22.40;28.59
43217;BME280;60511;42.686;23.300;2023-03-20T08:05:59;94894.59;;;22.43;28.48
43217;BME280;60511;42.686;23.300;2023-03-20T08:08:00;95007.84;;;23.04;28.29
43217;BME280;60511;42.686;23.300;2023-03-20T08:10:01;94927.19;;;22.62;28.53
43217;BME280;60511;42.686;23.300;2023-03-20T08:12:03;94995.84;;;23.02;28.79
43217;BME280;60511;42.686;23.300;2023-03-20T08:14:04;94981.66;;;23.05;28.73
43217;BME280;60511;42.686;23.300;2023-03-20T08:16:04;94965.81;;;22.91;28.54
43217;BME280;60511;42.686;23.300;2023-03-20T08:18:05;94985.47;;;23.04;28.67
43217;BME280;60511;42.686;23.300;2023-03-20T08:20:06;94986.69;;;23.06;28.51
43217;BME280;60511;42.686;23.300;2023-03-20T08:22:06;94992.47;;;23.05;28.50
43217;BME280;60511;42.686;23.300;2023-03-20T08:24:07;94932.91;;;22.61;28.37
43217;BME280;60511;42.686;23.300;2023-03-20T08:26:07;94963.94;;;22.67;27.84
43217;BME280;60511;42.686;23.300;2023-03-20T08:28:08;94933.06;;;22.27;26.64
43217;BME280;60511;42.686;23.300;2023-03-20T08:30:09;94922.00;;;22.08;26.68
43217;BME280;60511;42.686;23.300;2023-03-20T08:32:09;94993.72;;;22.46;26.33
43217;BME280;60511;42.686;23.300;2023-03-20T08:34:10;94988.66;;;22.32;26.29
43217;BME280;60511;42.686;23.300;2023-03-20T08:36:11;94965.75;;;22.26;26.16
43217;BME280;60511;42.686;23.300;2023-03-20T08:38:12;94817.84;;;21.30;25.81
43217;BME280;60511;42.686;23.300;2023-03-20T08:40:13;95001.50;;;22.48;25.83
43217;BME280;60511;42.686;23.300;2023-03-20T08:42:14;94951.44;;;22.13;25.86
43217;BME280;60511;42.686;23.300;2023-03-20T08:44:14;94980.44;;;22.29;26.03
43217;BME280;60511;42.686;23.300;2023-03-20T08:46:15;94963.66;;;22.23;26.32
43217;BME280;60511;42.686;23.300;2023-03-20T08:48:15;94996.75;;;22.44;25.86
43217;BME280;60511;42.686;23.300;2023-03-20T08:50:17;94999.78;;;22.43;25.94
43217;BME280;60511;42.686;23.300;2023-03-20T08:52:17;95000.59;;;22.56;25.46
43217;BME280;60511;42.686;23.300;2023-03-20T08:54:17;94993.59;;;22.55;25.25
43217;BME280;60511;42.686;23.300;2023-03-20T08:56:18;95018.66;;;22.55;25.25
43217;BME280;60511;42.686;23.300;2023-03-20T08:58:19;94987.31;;;22.51;25.19
43217;BME280;60511;42.686;23.300;2023-03-20T09:00:20;94848.44;;;21.58;25.28
43217;BME280;60511;42.686;23.300;2023-03-20T09:02:21;94920.53;;;22.11;25.51
43217;BME280;60511;42.686;23.300;2023-03-20T09:04:21;94926.63;;;22.07;25.36
43217;BME280;60511;42.686;23.300;2023-03-20T09:06:22;94907.63;;;22.04;25.22
43217;BME280;60511;42.686;23.300;2023-03-20T09:08:22;94833.03;;;21.46;25.61
43217;BME280;60511;42.686;23.300;2023-03-20T09:10:24;94951.34;;;22.34;25.11
43217;BME280;60511;42.686;23.300;2023-03-20T09:12:25;94810.38;;;21.48;25.27
43217;BME280;60511;42.686;23.300;2023-03-20T09:14:26;94980.56;;;22.57;25.17
43217;BME280;60511;42.686;23.300;2023-03-20T09:16:27;94872.81;;;21.86;25.13
43217;BME280;60511;42.686;23.300;2023-03-20T09:18:27;94879.66;;;21.96;25.23
43217;BME280;60511;42.686;23.300;2023-03-20T09:20:28;94902.56;;;22.15;24.99
43217;BME280;60511;42.686;23.300;2023-03-20T09:22:28;94937.44;;;22.32;24.99
43217;BME280;60511;42.686;23.300;2023-03-20T09:24:29;94941.47;;;22.38;24.98
43217;BME280;60511;42.686;23.300;2023-03-20T09:26:30;94970.47;;;22.54;25.17
43217;BME280;60511;42.686;23.300;2023-03-20T09:28:30;94879.31;;;22.10;24.60
43217;BME280;60511;42.686;23.300;2023-03-20T09:30:31;94937.53;;;22.48;24.61
43217;BME280;60511;42.686;23.300;2023-03-20T09:32:33;94784.81;;;21.54;24.50
43217;BME280;60511;42.686;23.300;2023-03-20T09:34:34;94920.66;;;22.39;24.79
43217;BME280;60511;42.686;23.300;2023-03-20T09:36:34;94955.63;;;22.60;24.50
43217;BME280;60511;42.686;23.300;2023-03-20T09:38:35;94840.94;;;22.01;24.29
43217;BME280;60511;42.686;23.300;2023-03-20T09:40:56;94890.13;;;22.35;24.66
43217;BME280;60511;42.686;23.300;2023-03-20T09:43:16;94940.53;;;22.71;24.35
43217;BME280;60511;42.686;23.300;2023-03-20T09:47:55;94921.66;;;22.71;24.48
43217;BME280;60511;42.686;23.300;2023-03-20T09:54:35;94855.94;;;22.39;24.49
43217;BME280;60511;42.686;23.300;2023-03-20T09:56:35;94787.56;;;22.06;24.48
43217;BME280;60511;42.686;23.300;2023-03-20T09:58:38;94733.72;;;21.70;24.53
43217;BME280;60511;42.686;23.300;2023-03-20T10:00:42;94853.38;;;22.42;24.60
43217;BME280;60511;42.686;23.300;2023-03-20T10:02:46;94858.50;;;22.60;24.48
43217;BME280;60511;42.686;23.300;2023-03-20T10:04:47;94877.09;;;22.77;24.51
43217;BME280;60511;42.686;23.300;2023-03-20T10:06:48;94862.31;;;22.59;24.52
43217;BME280;60511;42.686;23.300;2023-03-20T10:08:48;94881.38;;;22.78;24.50
43217;BME280;60511;42.686;23.300;2023-03-20T10:10:55;94797.78;;;22.25;24.54
43217;BME280;60511;42.686;23.300;2023-03-20T10:13:19;94845.34;;;22.58;24.49
43217;BME280;60511;42.686;23.300;2023-03-20T10:15:37;94841.97;;;22.61;24.55
43217;BME280;60511;42.686;23.300;2023-03-20T10:18:00;94873.38;;;22.82;24.38
43217;BME280;60511;42.686;23.300;2023-03-20T10:20:31;94779.88;;;22.21;24.30
43217;BME280;60511;42.686;23.300;2023-03-20T10:22:35;94813.16;;;22.37;24.49
43217;BME280;60511;42.686;23.300;2023-03-20T10:26:40;94857.78;;;22.75;23.98
43217;BME280;60511;42.686;23.300;2023-03-20T10:29:00;94883.59;;;22.89;24.20
43217;BME280;60511;42.686;23.300;2023-03-20T10:36:03;94817.56;;;22.70;24.14
43217;BME280;60511;42.686;23.300;2023-03-20T10:38:29;94844.34;;;22.91;24.18
43217;BME280;60511;42.686;23.300;2023-03-20T10:40:36;94787.38;;;22.52;24.11
43217;BME280;60511;42.686;23.300;2023-03-20T10:42:39;94770.47;;;22.39;23.99
43217;BME280;60511;42.686;23.300;2023-03-20T10:44:49;94792.44;;;22.54;23.75
43217;BME280;60511;42.686;23.300;2023-03-20T10:46:53;94827.94;;;22.84;24.16
43217;BME280;60511;42.686;23.300;2023-03-20T10:49:04;94695.88;;;21.91;24.78
43217;BME280;60511;42.686;23.300;2023-03-20T10:51:13;94689.91;;;21.85;24.46
43217;BME280;60511;42.686;23.300;2023-03-20T10:53:29;94823.47;;;22.76;24.37
43217;BME280;60511;42.686;23.300;2023-03-20T10:55:36;94780.06;;;22.53;24.21
43217;BME280;60511;42.686;23.300;2023-03-20T10:57:39;94725.78;;;22.26;23.94
43217;BME280;60511;42.686;23.300;2023-03-20T10:59:44;94831.19;;;22.90;24.08
43217;BME280;60511;42.686;23.300;2023-03-20T11:01:48;94671.81;;;21.98;23.69
43217;BME280;60511;42.686;23.300;2023-03-20T11:03:48;94805.41;;;22.76;23.72
43217;BME280;60511;42.686;23.300;2023-03-20T11:06:09;94794.94;;;22.75;23.41
43217;BME280;60511;42.686;23.300;2023-03-20T11:08:13;94770.53;;;22.71;23.05
43217;BME280;60511;42.686;23.300;2023-03-20T11:10:16;94752.06;;;22.57;23.56
43217;BME280;60511;42.686;23.300;2023-03-20T11:12:19;94785.13;;;22.82;23.43
43217;BME280;60511;42.686;23.300;2023-03-20T11:14:22;94799.88;;;23.01;23.43
43217;BME280;60511;42.686;23.300;2023-03-20T11:16:29;94790.66;;;23.02;23.49
43217;BME280;60511;42.686;23.300;2023-03-20T11:18:30;94763.09;;;22.80;23.35
43217;BME280;60511;42.686;23.300;2023-03-20T11:20:38;94706.34;;;22.49;23.21
43217;BME280;60511;42.686;23.300;2023-03-20T11:22:39;94794.78;;;23.12;23.13
43217;BME280;60511;42.686;23.300;2023-03-20T11:24:43;94783.22;;;23.11;23.29
43217;BME280;60511;42.686;23.300;2023-03-20T11:26:45;94779.34;;;23.12;22.92
43217;BME280;60511;42.686;23.300;2023-03-20T11:28:46;94769.72;;;23.11;22.90
43217;BME280;60511;42.686;23.300;2023-03-20T11:30:48;94772.41;;;23.11;23.17
43217;BME280;60511;42.686;23.300;2023-03-20T11:32:53;94719.91;;;22.80;23.00
43217;BME280;60511;42.686;23.300;2023-03-20T11:34:55;94722.41;;;22.73;22.90
43217;BME280;60511;42.686;23.300;2023-03-20T11:36:59;94722.59;;;22.64;23.08
43217;BME280;60511;42.686;23.300;2023-03-20T11:39:01;94757.94;;;23.03;23.04